Ana Sayfa
METAR-TAF:

METAR-TAF

Havaalanları :

Mykonos, Yunanistan

Enlem: 37-26-09N, Boylam: 025-20-45E, yükseklik: 123 m

Güncel hava durumu gözlemi

Rapor saat 17:20 UTC de 35 dakika önce yapıldı.
Rüzgar kuzey/kuzeybatıdan 18 kt
Sıcaklık 25°C
Nem 65%
Basınç 1009 hPa
Görüş mesafesi 10 km veya daha fazla
1500 m altında bulut yok ve kümülonimbus yok

METAR: LGMK 181720Z 33018KT CAVOK 25/18 Q1009

Saat: 20:55 (17:55 UTC)

Tahmin

Rapor saat 17:00 UTC de 55 dakika önce yapıldı.
Ayın 18'si saat 18 UTC'den ayın 19'si saat 03 UTC'ye kadar geçerli Tahmin
Rüzgar kuzeydan 23 kt ve 33 kt'a kadar ani rüzgarlar
Görüş mesafesi 10 km veya daha fazla
2000 ft yükseklikte az bulutlu

TAF: LGMK 181700Z 1818/1903 35023G33KT 9999 FEW020

4.000'den fazla havaalanı için hava durumu gözlemleri ve tahminleri (METAR ve TAF raporları).

Kullanılabilir istasyonlar harita üzerinde sarı ve kırmızı noktalarla gösterilir.

İstasyonun adını görmek için fareyi noktanın üzerinde gezdirin.

Sonrasında hava gözlem ve tahminlerini görmek için tıklayın.

Haritayı değiştirmek için: yaklaştırmak için siyah artı işaretli yeşil düğmeye ve uzaklaştırmak için de eksi işaretli düğmeye hızla tıklayın; bitişik haritalar için yeşil okları kullanın.


METAR-TAF: